Time;durP1;ratioP1;P1;durP2;ratioP2;P2;SDS_P1;SDS_P2;PMS_P1;PMS_P2;Temp;Humidity;BMP_temperature;BMP_pressure;BME280_temperature;BME280_humidity;BME280_pressure;Samples;Min_cycle;Max_cycle;Signal;HPM_P1;HPM_P2
2022/06/07 00:02:24;;;;;;;4.53;2.53;;;23.10;33.80;;;;;;10574249;28;20318;-73
2022/06/07 00:07:28;;;;;;;2.83;2.63;;;23.10;34.80;;;;;;10574396;27;20222;-73
2022/06/07 00:12:32;;;;;;;3.23;2.50;;;23.00;34.40;;;;;;10573942;27;20227;-73
2022/06/07 00:17:36;;;;;;;2.70;2.50;;;23.00;34.50;;;;;;10574288;28;20222;-73
2022/06/07 00:22:41;;;;;;;2.50;2.30;;;23.00;35.20;;;;;;10573858;27;20233;-73
2022/06/07 00:27:45;;;;;;;3.00;2.63;;;22.90;35.40;;;;;;10573679;27;20305;-73
2022/06/07 00:32:50;;;;;;;4.50;2.70;;;22.90;34.80;;;;;;10573196;27;20610;-73
2022/06/07 00:37:53;;;;;;;2.50;2.33;;;22.90;35.60;;;;;;10573000;28;20781;-73
2022/06/07 00:42:56;;;;;;;2.43;2.33;;;22.80;35.00;;;;;;10572710;28;20234;-73
2022/06/07 00:48:04;;;;;;;2.20;2.10;;;22.70;35.10;;;;;;10572436;27;20632;-73
2022/06/07 00:53:21;;;;;;;2.40;2.20;;;22.60;34.60;;;;;;10561706;27;20306;-77
2022/06/07 00:58:27;;;;;;;2.30;2.10;;;22.50;34.90;;;;;;10569848;27;20716;-78
2022/06/07 01:03:32;;;;;;;2.33;2.10;;;22.30;34.70;;;;;;10559400;28;20242;-78
2022/06/07 01:13:56;;;;;;;2.03;1.83;;;22.10;35.00;;;;;;10557583;27;20215;-78
2022/06/07 01:19:01;;;;;;;2.80;2.00;;;21.80;34.90;;;;;;10561612;28;20217;-78
2022/06/07 01:24:06;;;;;;;2.27;2.10;;;21.50;35.80;;;;;;10556284;27;20223;-78
2022/06/07 01:29:11;;;;;;;2.10;1.90;;;21.20;36.20;;;;;;10564438;27;20215;-78
2022/06/07 01:34:15;;;;;;;2.17;2.00;;;21.00;36.20;;;;;;10556575;28;20227;-78
2022/06/07 01:44:43;;;;;;;3.00;2.20;;;20.60;37.00;;;;;;10558684;27;20262;-77
2022/06/07 01:49:47;;;;;;;2.33;1.80;;;20.30;37.40;;;;;;10556899;27;20218;-77
2022/06/07 01:54:52;;;;;;;1.80;1.70;;;20.20;36.70;;;;;;10517601;28;20219;-77
2022/06/07 01:59:57;;;;;;;2.13;1.97;;;20.10;38.00;;;;;;10521421;28;20227;-77
2022/06/07 02:05:01;;;;;;;2.40;1.90;;;20.10;37.50;;;;;;10508294;28;20226;-77
2022/06/07 02:10:06;;;;;;;1.93;1.80;;;20.10;37.70;;;;;;10513145;28;20217;-77
2022/06/07 02:15:10;;;;;;;2.47;2.00;;;20.10;38.50;;;;;;10532865;28;20239;-77
2022/06/07 02:20:14;;;;;;;2.23;2.03;;;20.00;38.00;;;;;;10530536;28;20227;-77
2022/06/07 02:25:18;;;;;;;2.00;1.80;;;20.00;38.00;;;;;;10526524;28;20238;-77
2022/06/07 02:30:22;;;;;;;2.80;2.07;;;19.90;38.50;;;;;;10525549;28;21116;-77
2022/06/07 02:35:25;;;;;;;2.57;2.07;;;19.80;38.10;;;;;;10526123;28;20718;-78
2022/06/07 02:40:29;;;;;;;2.40;2.20;;;19.80;38.40;;;;;;10523180;28;20223;-77
2022/06/07 02:45:33;;;;;;;2.50;2.17;;;19.70;39.20;;;;;;10521567;27;20228;-77
2022/06/07 02:50:36;;;;;;;2.40;2.20;;;19.70;38.80;;;;;;10524912;28;20228;-77
2022/06/07 02:55:41;;;;;;;2.60;2.40;;;19.60;38.80;;;;;;10520494;28;20271;-77
2022/06/07 03:00:44;;;;;;;2.50;2.30;;;19.50;39.50;;;;;;10520669;28;20711;-77
2022/06/07 03:05:48;;;;;;;2.00;1.80;;;19.40;39.10;;;;;;10517802;28;20628;-77
2022/06/07 03:10:57;;;;;;;2.30;2.13;;;19.40;39.50;;;;;;10523046;28;20220;-77
2022/06/07 03:16:00;;;;;;;2.73;2.43;;;19.50;40.30;;;;;;10520768;28;20596;-77
2022/06/07 03:21:03;;;;;;;2.37;2.27;;;19.50;39.70;;;;;;10516149;28;20286;-77
2022/06/07 03:26:10;;;;;;;3.97;2.27;;;19.50;39.80;;;;;;10522538;28;20227;-77
2022/06/07 03:31:15;;;;;;;2.03;1.93;;;19.50;40.60;;;;;;10522301;28;20246;-77
2022/06/07 03:36:22;;;;;;;2.00;1.70;;;19.50;40.20;;;;;;10521355;28;20224;-77
2022/06/07 03:41:28;;;;;;;1.97;1.87;;;19.40;40.20;;;;;;10529569;28;20234;-77
2022/06/07 03:46:32;;;;;;;2.33;2.20;;;19.40;41.00;;;;;;10521108;28;20234;-77
2022/06/07 03:51:36;;;;;;;2.43;2.27;;;19.50;40.30;;;;;;10519795;28;20311;-77
2022/06/07 03:56:40;;;;;;;3.20;2.03;;;19.50;40.40;;;;;;10507156;28;20242;-77
2022/06/07 04:01:44;;;;;;;2.43;2.23;;;19.50;41.00;;;;;;10509704;28;20691;-77
2022/06/07 04:12:07;;;;;;;2.27;2.17;;;19.40;40.60;;;;;;10522867;28;20217;-77
2022/06/07 04:17:12;;;;;;;2.73;2.23;;;19.40;41.20;;;;;;10511826;28;20232;-77
2022/06/07 04:22:15;;;;;;;2.90;2.20;;;19.40;40.80;;;;;;10515976;28;20222;-77
2022/06/07 04:27:20;;;;;;;2.83;2.50;;;19.40;40.80;;;;;;10525763;28;20215;-77
2022/06/07 04:32:23;;;;;;;2.40;2.20;;;19.30;41.50;;;;;;10520808;28;20884;-77
2022/06/07 04:37:26;;;;;;;2.70;2.30;;;19.30;41.10;;;;;;10516817;28;20239;-77
2022/06/07 04:42:31;;;;;;;2.23;2.13;;;19.30;41.10;;;;;;10519065;28;20238;-78
2022/06/07 04:47:34;;;;;;;2.17;2.03;;;19.30;41.80;;;;;;10516887;28;20229;-78
2022/06/07 04:52:37;;;;;;;2.30;2.10;;;19.20;41.20;;;;;;10509025;28;20219;-77
2022/06/07 04:57:42;;;;;;;2.47;2.27;;;19.30;41.30;;;;;;10510086;28;20242;-78
2022/06/07 05:02:47;;;;;;;3.30;2.30;;;19.20;42.20;;;;;;10514273;28;20251;-77
2022/06/07 05:07:50;;;;;;;2.67;2.47;;;19.20;41.80;;;;;;10521842;28;20223;-77
2022/06/07 05:12:55;;;;;;;2.60;2.17;;;19.20;41.70;;;;;;10518078;28;20215;-77
2022/06/07 05:17:58;;;;;;;2.60;2.40;;;19.10;42.30;;;;;;10518192;28;20230;-78
2022/06/07 05:23:02;;;;;;;2.50;2.30;;;19.10;41.70;;;;;;10520643;28;20219;-77
2022/06/07 05:28:09;;;;;;;2.30;2.20;;;19.00;41.80;;;;;;10522911;28;20230;-77
2022/06/07 05:33:12;;;;;;;2.30;2.10;;;19.00;42.80;;;;;;10513900;28;20594;-77
2022/06/07 05:38:16;;;;;;;2.47;2.27;;;19.00;42.30;;;;;;10519469;28;20228;-77
2022/06/07 05:43:20;;;;;;;2.60;2.40;;;19.00;42.40;;;;;;10518799;28;20220;-77
2022/06/07 05:48:24;;;;;;;2.20;2.00;;;19.00;43.00;;;;;;10530618;28;20360;-77
2022/06/07 05:53:28;;;;;;;2.17;1.87;;;19.10;42.80;;;;;;10512450;28;20234;-78
2022/06/07 05:58:32;;;;;;;2.60;2.40;;;19.10;42.60;;;;;;10530666;28;20220;-78
2022/06/07 06:03:39;;;;;;;2.70;2.23;;;19.10;43.40;;;;;;10518248;28;20597;-77
2022/06/07 06:14:04;;;;;;;2.73;2.53;;;19.20;42.90;;;;;;10519439;28;20223;-78
2022/06/07 06:19:08;;;;;;;2.50;2.30;;;19.20;43.80;;;;;;10519635;28;20227;-78
2022/06/07 06:24:12;;;;;;;2.40;2.00;;;19.20;43.10;;;;;;10529010;28;20220;-77
2022/06/07 06:29:16;;;;;;;2.20;1.97;;;19.20;43.50;;;;;;10524745;28;20232;-78
2022/06/07 06:34:20;;;;;;;2.20;2.10;;;19.20;43.90;;;;;;10519839;28;20236;-78
2022/06/07 06:39:26;;;;;;;2.43;2.33;;;19.30;43.40;;;;;;10526693;28;20228;-77
2022/06/07 06:44:31;;;;;;;2.37;2.17;;;19.30;43.10;;;;;;10515784;28;20318;-78
2022/06/07 06:49:35;;;;;;;2.90;2.70;;;19.30;43.90;;;;;;10512677;28;20236;-78
2022/06/07 06:54:40;;;;;;;2.60;2.40;;;19.40;43.30;;;;;;10516051;28;20236;-78
2022/06/07 06:59:45;;;;;;;2.43;2.23;;;19.40;43.30;;;;;;10519105;28;20228;-78
2022/06/07 07:04:48;;;;;;;2.27;2.07;;;19.50;44.20;;;;;;10507644;28;20227;-78
2022/06/07 07:09:51;;;;;;;2.80;2.60;;;19.50;43.50;;;;;;10500510;28;20220;-78
2022/06/07 07:14:56;;;;;;;2.50;2.30;;;19.60;43.80;;;;;;10513683;28;20710;-78
2022/06/07 07:20:00;;;;;;;2.40;2.30;;;19.60;44.50;;;;;;10512042;28;20220;-78
2022/06/07 07:25:05;;;;;;;2.33;2.23;;;19.70;43.90;;;;;;10557992;27;20586;-78
2022/06/07 07:30:11;;;;;;;2.77;2.57;;;19.80;44.20;;;;;;10557107;28;20223;-78
2022/06/07 07:35:14;;;;;;;3.03;2.80;;;19.80;44.40;;;;;;10510195;28;1150030;-78
2022/06/07 07:40:18;;;;;;;3.20;3.00;;;19.90;43.50;;;;;;10512814;28;20738;-77
2022/06/07 07:45:23;;;;;;;2.83;2.63;;;20.00;43.50;;;;;;10521037;28;20230;-78
2022/06/07 07:50:26;;;;;;;3.17;2.97;;;20.00;44.10;;;;;;10524372;28;20223;-78
2022/06/07 07:55:29;;;;;;;4.60;4.13;;;20.00;43.90;;;;;;10528932;28;20235;-78
2022/06/07 08:00:34;;;;;;;4.40;4.10;;;20.00;43.80;;;;;;10521547;28;20577;-77
2022/06/07 08:05:38;;;;;;;4.67;4.30;;;20.10;44.20;;;;;;10532794;28;20787;-77
2022/06/07 08:10:41;;;;;;;4.97;4.57;;;20.20;43.70;;;;;;10523365;28;20215;-78
2022/06/07 08:15:46;;;;;;;4.97;4.57;;;20.20;43.70;;;;;;10519093;28;20228;-78
2022/06/07 08:20:51;;;;;;;5.23;4.83;;;20.30;44.30;;;;;;10510060;28;20224;-78
2022/06/07 08:25:54;;;;;;;5.33;4.93;;;20.30;43.90;;;;;;10504953;28;20881;-77
2022/06/07 08:30:59;;;;;;;5.47;5.07;;;20.30;43.30;;;;;;10519732;28;20219;-78
2022/06/07 08:41:32;;;;;;;5.07;4.53;;;20.30;44.40;;;;;;10505893;28;20792;-77
2022/06/07 08:46:38;;;;;;;5.53;5.03;;;20.30;44.10;;;;;;10511457;28;20236;-78
2022/06/07 08:51:51;;;;;;;4.80;4.40;;;20.30;44.40;;;;;;10508761;28;20314;-78
2022/06/07 08:56:54;;;;;;;4.03;3.63;;;20.30;44.80;;;;;;10520619;28;20224;-78
2022/06/07 09:02:08;;;;;;;3.87;3.57;;;20.30;43.50;;;;;;10518800;28;20215;-78
2022/06/07 09:07:15;;;;;;;3.93;3.63;;;20.30;44.10;;;;;;10518638;28;20224;-78
2022/06/07 09:12:22;;;;;;;4.50;3.53;;;20.40;43.80;;;;;;10517627;28;20775;-77
2022/06/07 09:17:34;;;;;;;3.60;3.40;;;20.30;44.00;;;;;;10512486;28;20219;-78
2022/06/07 09:22:47;;;;;;;2.90;2.70;;;20.40;43.90;;;;;;10516025;28;20262;-77
2022/06/07 09:27:51;;;;;;;2.60;2.37;;;20.40;43.20;;;;;;10519176;28;20223;-78
2022/06/07 09:32:56;;;;;;;2.43;2.33;;;20.30;42.80;;;;;;10505204;28;20570;-78
2022/06/07 09:38:03;;;;;;;2.87;2.60;;;20.30;43.20;;;;;;10509387;28;20239;-78
2022/06/07 09:43:15;;;;;;;2.80;2.60;;;20.30;43.50;;;;;;10529740;27;20219;-77
2022/06/07 09:48:26;;;;;;;2.97;2.77;;;20.30;43.90;;;;;;10562814;27;20233;-78
2022/06/07 09:53:35;;;;;;;4.70;2.90;;;20.30;43.60;;;;;;10544340;28;20234;-78
2022/06/07 09:58:49;;;;;;;3.23;2.60;;;20.30;44.00;;;;;;10550696;28;20230;-77
2022/06/07 10:04:01;;;;;;;2.80;2.60;;;20.30;43.90;;;;;;10558954;28;20308;-78
2022/06/07 10:09:32;;;;;;;3.90;1.83;;;20.30;44.50;;;;;;10544921;28;20215;-78
2022/06/07 10:14:47;;;;;;;2.03;1.93;;;20.30;44.10;;;;;;10548618;28;20230;-78
2022/06/07 10:20:00;;;;;;;1.67;1.57;;;20.40;44.00;;;;;;10547677;28;20240;-78
2022/06/07 10:25:13;;;;;;;1.77;1.67;;;20.50;43.00;;;;;;10540862;28;20233;-78
2022/06/07 10:30:19;;;;;;;1.83;1.73;;;20.60;42.90;;;;;;10565132;28;20229;-77
2022/06/07 10:35:31;;;;;;;1.70;1.60;;;20.70;42.60;;;;;;10565962;28;20257;-77
2022/06/07 10:40:39;;;;;;;2.90;1.50;;;20.70;42.50;;;;;;10566224;27;20245;-77
2022/06/07 10:45:45;;;;;;;1.90;1.80;;;20.80;42.70;;;;;;10563969;27;20624;-78
2022/06/07 10:50:55;;;;;;;1.53;1.47;;;20.80;42.40;;;;;;10554313;28;20504;-77
2022/06/07 10:56:05;;;;;;;1.70;1.60;;;20.90;43.60;;;;;;10557098;28;20231;-78
2022/06/07 11:01:15;;;;;;;1.70;1.60;;;21.00;42.30;;;;;;10556518;28;20227;-77
2022/06/07 11:11:55;;;;;;;1.40;1.40;;;21.20;42.30;;;;;;10555695;28;20221;-77
2022/06/07 11:17:03;;;;;;;3.30;1.53;;;21.30;41.60;;;;;;10566412;28;20225;-78
2022/06/07 11:22:15;;;;;;;1.40;1.30;;;21.40;41.40;;;;;;10556068;27;20215;-77
2022/06/07 11:27:23;;;;;;;1.37;1.27;;;21.40;41.40;;;;;;10564634;28;20226;-78
2022/06/07 11:32:50;;;;;;;1.37;1.23;;;21.50;41.10;;;;;;10529889;28;20232;-78
2022/06/07 11:37:55;;;;;;;1.43;1.30;;;21.50;41.80;;;;;;10505123;28;20590;-77
2022/06/07 11:42:59;;;;;;;2.03;1.93;;;21.60;40.80;;;;;;10518886;28;20234;-78
2022/06/07 11:48:25;;;;;;;1.50;1.23;;;21.70;41.50;;;;;;10558626;28;20225;-78
2022/06/07 11:53:32;;;;;;;1.30;1.20;;;21.90;40.70;;;;;;10554144;28;20241;-78
2022/06/07 11:59:01;;;;;;;2.00;1.23;;;21.90;40.70;;;;;;10538463;28;20231;-77
2022/06/07 12:04:33;;;;;;;1.37;1.30;;;22.00;40.50;;;;;;10556870;28;20691;-78
2022/06/07 12:09:48;;;;;;;1.80;1.10;;;22.20;40.70;;;;;;10555551;28;20272;-77
2022/06/07 12:15:00;;;;;;;1.10;1.10;;;22.40;40.00;;;;;;10553346;28;20222;-78
2022/06/07 12:20:06;;;;;;;2.10;1.20;;;22.40;40.00;;;;;;10543121;28;20219;-77
2022/06/07 12:25:18;;;;;;;1.20;1.10;;;22.50;39.20;;;;;;10550836;28;20373;-77
2022/06/07 12:30:27;;;;;;;1.20;1.00;;;22.60;38.50;;;;;;10551223;28;20229;-77
2022/06/07 12:35:32;;;;;;;1.17;1.17;;;22.60;38.80;;;;;;10561487;28;20226;-77
2022/06/07 12:40:48;;;;;;;3.30;1.50;;;22.70;38.90;;;;;;10550408;28;20232;-77
2022/06/07 12:46:03;;;;;;;1.10;1.10;;;22.90;39.10;;;;;;10552797;28;20305;-77
2022/06/07 12:51:35;;;;;;;0.93;0.90;;;23.10;38.40;;;;;;10550518;27;20219;-77
2022/06/07 12:56:41;;;;;;;1.90;1.10;;;23.30;38.30;;;;;;10555565;28;20258;-77
2022/06/07 13:01:48;;;;;;;1.03;0.90;;;23.40;37.40;;;;;;10546787;28;20296;-78
2022/06/07 13:07:03;;;;;;;2.37;1.00;;;23.40;36.70;;;;;;10551894;28;20281;-77
2022/06/07 13:12:29;;;;;;;0.90;0.90;;;23.50;35.60;;;;;;10546786;28;20702;-78
2022/06/07 13:17:40;;;;;;;1.10;1.00;;;23.50;35.80;;;;;;10555331;28;20223;-77
2022/06/07 13:22:45;;;;;;;0.80;0.80;;;23.60;36.10;;;;;;10554489;28;20237;-77
2022/06/07 13:27:51;;;;;;;0.87;0.87;;;23.70;36.00;;;;;;10559024;27;20718;-77
2022/06/07 13:33:04;;;;;;;1.67;0.77;;;23.70;36.10;;;;;;10520609;28;20220;-77
2022/06/07 13:38:31;;;;;;;0.70;0.70;;;23.70;35.40;;;;;;10525326;28;20214;-77
2022/06/07 13:43:37;;;;;;;1.20;0.87;;;23.60;35.80;;;;;;10559524;27;20237;-77
2022/06/07 13:54:02;;;;;;;0.97;0.97;;;23.60;35.80;;;;;;10537794;28;20220;-77
2022/06/07 13:59:05;;;;;;;1.23;0.97;;;23.60;35.20;;;;;;10504417;28;20219;-77
2022/06/07 14:04:19;;;;;;;1.00;1.00;;;23.60;36.20;;;;;;10510974;28;20606;-77
2022/06/07 14:09:25;;;;;;;1.13;1.03;;;23.60;34.80;;;;;;10515486;28;20236;-77
2022/06/07 14:14:29;;;;;;;1.13;1.00;;;23.50;35.60;;;;;;10515542;28;20305;-77
2022/06/07 14:19:44;;;;;;;2.00;1.10;;;23.50;35.50;;;;;;10518732;28;20246;-77
2022/06/07 14:24:51;;;;;;;0.80;0.80;;;23.30;34.80;;;;;;10510033;28;21137;-77
2022/06/07 14:29:55;;;;;;;1.87;1.20;;;23.20;35.80;;;;;;10510365;28;20220;-77
2022/06/07 14:34:59;;;;;;;1.30;1.10;;;23.20;36.00;;;;;;10515209;28;20231;-77
2022/06/07 14:40:14;;;;;;;1.30;1.07;;;23.20;35.60;;;;;;10506589;28;20243;-77
2022/06/07 14:45:19;;;;;;;1.63;1.23;;;23.20;35.50;;;;;;10520118;28;20223;-77
2022/06/07 14:50:23;;;;;;;1.10;1.10;;;23.20;35.70;;;;;;10512657;28;20224;-77
2022/06/07 14:55:28;;;;;;;3.07;1.10;;;23.20;35.60;;;;;;10503964;28;20243;-77
2022/06/07 15:00:31;;;;;;;1.70;1.20;;;23.30;35.50;;;;;;10508142;28;20224;-77
2022/06/07 15:05:37;;;;;;;1.13;1.03;;;23.30;35.70;;;;;;10515621;28;20231;-77
2022/06/07 15:10:42;;;;;;;1.30;1.00;;;23.20;35.40;;;;;;10509326;28;20235;-77
2022/06/07 15:15:45;;;;;;;1.30;1.20;;;23.20;35.50;;;;;;10519890;28;20621;-77
2022/06/07 15:20:49;;;;;;;1.23;1.17;;;23.10;35.80;;;;;;10507885;28;20234;-77
2022/06/07 15:25:54;;;;;;;1.10;1.10;;;23.00;35.80;;;;;;10508200;28;20242;-77
2022/06/07 15:30:57;;;;;;;1.17;1.10;;;22.90;35.40;;;;;;10506810;28;20239;-77
2022/06/07 15:36:01;;;;;;;1.10;1.10;;;22.80;35.80;;;;;;10513115;28;20239;-77
2022/06/07 15:42:46;;;;;;;1.30;1.20;;;22.70;35.90;;;;;;10513795;28;20868;-77
2022/06/07 15:46:29;;;;;;;1.27;1.17;;;22.70;36.00;;;;;;10504913;28;20228;-77
2022/06/07 15:51:33;;;;;;;1.13;1.10;;;22.60;36.00;;;;;;10512935;28;20235;-77
2022/06/07 15:56:37;;;;;;;1.50;1.33;;;22.60;36.20;;;;;;10510508;28;20239;-77
2022/06/07 16:01:41;;;;;;;1.20;1.10;;;22.60;36.40;;;;;;10503821;28;20234;-77
2022/06/07 16:06:45;;;;;;;2.67;1.40;;;22.70;36.30;;;;;;10517779;28;20235;-77
2022/06/07 16:11:49;;;;;;;1.23;1.10;;;22.70;36.00;;;;;;10514759;28;20219;-77
2022/06/07 16:16:53;;;;;;;1.43;1.30;;;22.70;36.00;;;;;;10516025;28;20224;-77
2022/06/07 16:22:02;;;;;;;3.80;1.20;;;22.60;36.40;;;;;;10508356;28;20243;-77
2022/06/07 16:33:18;;;;;;;1.50;1.40;;;22.70;36.80;;;;;;10518321;28;20882;-77
2022/06/07 16:37:50;;;;;;;1.10;1.00;;;22.90;36.20;;;;;;10500036;28;20771;-77
2022/06/07 16:42:54;;;;;;;1.10;1.10;;;22.90;35.90;;;;;;10509740;28;20230;-77
2022/06/07 16:47:58;;;;;;;0.90;0.90;;;22.80;35.70;;;;;;10511799;28;20228;-77
2022/06/07 16:53:01;;;;;;;1.40;1.20;;;22.80;35.90;;;;;;10510631;28;20220;-77
2022/06/07 16:58:06;;;;;;;1.83;1.10;;;22.80;35.80;;;;;;10511729;28;20694;-77
2022/06/07 17:03:09;;;;;;;1.43;1.20;;;22.70;35.60;;;;;;10508224;28;20708;-77
2022/06/07 17:08:14;;;;;;;1.40;1.30;;;22.70;36.10;;;;;;10505594;28;20777;-77
2022/06/07 17:13:20;;;;;;;1.73;1.10;;;22.70;35.90;;;;;;10503184;28;20220;-76
2022/06/07 17:18:23;;;;;;;1.47;1.10;;;22.70;36.00;;;;;;10508470;28;20227;-77
2022/06/07 17:23:27;;;;;;;1.10;1.03;;;22.80;36.10;;;;;;10508942;28;20231;-76
2022/06/07 17:28:31;;;;;;;2.60;1.30;;;22.80;36.70;;;;;;10512013;28;20231;-77
2022/06/07 17:33:35;;;;;;;1.20;1.20;;;22.80;36.20;;;;;;10505173;28;20935;-77
2022/06/07 17:38:40;;;;;;;1.63;1.30;;;22.80;36.10;;;;;;10512457;28;20238;-77
2022/06/07 17:43:45;;;;;;;1.17;1.10;;;22.80;35.80;;;;;;10515686;28;20235;-77
2022/06/07 17:48:49;;;;;;;1.30;1.20;;;22.80;35.80;;;;;;10522185;28;20270;-77
2022/06/07 17:53:52;;;;;;;1.20;0.90;;;22.90;36.20;;;;;;10513321;28;20849;-77
2022/06/07 17:58:57;;;;;;;1.13;1.03;;;22.90;36.00;;;;;;10511487;28;20226;-77
2022/06/07 18:04:01;;;;;;;1.03;1.03;;;22.80;35.80;;;;;;10512860;28;20322;-77
2022/06/07 18:09:04;;;;;;;1.27;1.10;;;22.80;35.90;;;;;;10517969;28;20224;-76
2022/06/07 18:14:09;;;;;;;1.50;1.40;;;22.80;36.10;;;;;;10518919;28;20804;-77
2022/06/07 18:19:12;;;;;;;1.10;1.00;;;22.70;35.80;;;;;;10513674;28;20708;-76
2022/06/07 18:24:15;;;;;;;2.07;1.10;;;22.60;35.80;;;;;;10517241;28;20227;-77
2022/06/07 18:29:20;;;;;;;1.00;0.90;;;22.50;36.60;;;;;;10515781;28;20227;-77
2022/06/07 18:34:26;;;;;;;1.00;1.00;;;22.40;35.90;;;;;;10514844;28;20231;-77
2022/06/07 18:39:29;;;;;;;1.03;1.03;;;22.30;36.10;;;;;;10518218;28;20229;-76
2022/06/07 18:44:34;;;;;;;1.13;1.10;;;22.30;36.30;;;;;;10509338;28;20224;-77
2022/06/07 18:49:38;;;;;;;1.40;1.10;;;22.20;36.40;;;;;;10512142;28;21313;-77
2022/06/07 18:54:42;;;;;;;1.47;1.40;;;22.20;36.40;;;;;;10519410;28;20246;-77
2022/06/07 18:59:49;;;;;;;1.63;1.53;;;22.20;36.50;;;;;;10514419;28;20231;-76
2022/06/07 19:04:52;;;;;;;1.77;1.40;;;22.20;36.70;;;;;;10517045;28;20223;-77
2022/06/07 19:09:59;;;;;;;1.40;1.30;;;22.20;36.60;;;;;;10516732;28;20707;-77
2022/06/07 19:15:04;;;;;;;1.77;1.27;;;22.20;36.60;;;;;;10514955;28;20223;-77
2022/06/07 19:20:09;;;;;;;1.60;1.50;;;22.20;36.90;;;;;;10518048;28;20225;-76
2022/06/07 19:25:14;;;;;;;1.33;1.23;;;22.10;36.60;;;;;;10512933;28;20559;-76
2022/06/07 19:30:22;;;;;;;1.80;1.30;;;22.10;36.70;;;;;;10521907;28;20708;-77
2022/06/07 19:35:28;;;;;;;1.00;1.00;;;22.00;36.50;;;;;;10524114;28;20568;-77
2022/06/07 19:40:31;;;;;;;1.20;1.10;;;22.10;36.80;;;;;;10558416;28;20224;-77
2022/06/07 19:45:41;;;;;;;1.27;1.20;;;22.00;36.70;;;;;;10555800;27;20284;-76
2022/06/07 19:50:50;;;;;;;1.43;1.33;;;22.00;36.80;;;;;;10557339;28;20239;-76
2022/06/07 19:55:54;;;;;;;3.20;1.40;;;21.90;36.80;;;;;;10558212;28;20886;-77
2022/06/07 20:00:59;;;;;;;2.07;1.40;;;21.90;36.80;;;;;;10555717;27;20215;-77
2022/06/07 20:06:03;;;;;;;1.20;1.20;;;21.90;37.00;;;;;;10556275;28;20617;-76
2022/06/07 20:11:07;;;;;;;1.70;1.30;;;21.80;37.00;;;;;;10537953;28;20237;-76
2022/06/07 20:16:13;;;;;;;1.50;1.40;;;21.70;37.10;;;;;;10555793;27;20223;-76
2022/06/07 20:21:16;;;;;;;1.30;1.20;;;21.60;37.70;;;;;;10560935;27;20215;-76
2022/06/07 20:26:20;;;;;;;2.07;1.40;;;21.60;37.80;;;;;;10527417;28;20703;-77
2022/06/07 20:31:24;;;;;;;1.20;1.10;;;21.60;37.90;;;;;;10516312;28;20236;-76
2022/06/07 20:36:28;;;;;;;1.37;1.27;;;21.60;37.90;;;;;;10510008;28;20224;-76
2022/06/07 20:41:35;;;;;;;1.93;1.30;;;21.60;38.00;;;;;;10505932;28;20654;-76
2022/06/07 20:46:40;;;;;;;1.50;1.40;;;21.70;38.00;;;;;;10519820;28;20235;-76
2022/06/07 20:51:43;;;;;;;1.93;1.30;;;21.70;38.00;;;;;;10514289;28;20281;-76
2022/06/07 20:56:46;;;;;;;1.33;1.23;;;21.70;38.00;;;;;;10506329;28;20267;-77
2022/06/07 21:01:51;;;;;;;1.33;1.23;;;21.80;38.10;;;;;;10507551;28;20223;-76
2022/06/07 21:06:54;;;;;;;2.27;1.37;;;21.70;38.00;;;;;;10512304;28;20215;-77
2022/06/07 21:11:58;;;;;;;1.70;1.07;;;21.60;37.90;;;;;;10503557;28;20229;-76
2022/06/07 21:17:04;;;;;;;1.43;1.23;;;21.50;37.80;;;;;;10508838;28;20249;-76
2022/06/07 21:22:08;;;;;;;2.17;1.00;;;21.30;37.90;;;;;;10515307;28;20234;-76
2022/06/07 21:27:11;;;;;;;1.13;1.13;;;21.10;37.50;;;;;;10505786;28;20716;-76
2022/06/07 21:32:18;;;;;;;1.33;0.90;;;21.00;37.70;;;;;;10508614;28;20228;-76
2022/06/07 21:37:21;;;;;;;0.83;0.83;;;20.80;38.00;;;;;;10509445;28;20315;-77
2022/06/07 21:42:24;;;;;;;0.90;0.90;;;20.70;37.80;;;;;;10504394;28;20223;-76
2022/06/07 21:47:29;;;;;;;0.80;0.80;;;20.50;37.80;;;;;;10504371;28;20751;-77
2022/06/07 21:52:33;;;;;;;0.90;0.90;;;20.50;38.00;;;;;;10503661;28;20323;-76
2022/06/07 21:57:36;;;;;;;1.37;0.80;;;20.40;37.80;;;;;;10506649;28;20239;-76
2022/06/07 22:02:41;;;;;;;0.70;0.70;;;20.40;37.80;;;;;;10509653;28;20224;-76
2022/06/07 22:07:45;;;;;;;1.37;0.70;;;20.30;37.90;;;;;;10504563;28;20232;-76
2022/06/07 22:12:48;;;;;;;0.70;0.70;;;20.30;37.80;;;;;;10509898;28;20228;-76
2022/06/07 22:17:53;;;;;;;0.70;0.70;;;20.20;37.70;;;;;;10511564;28;20228;-76
2022/06/07 22:22:57;;;;;;;0.70;0.70;;;20.20;38.20;;;;;;10510707;28;20221;-76
2022/06/07 22:28:00;;;;;;;1.23;0.70;;;20.10;38.10;;;;;;10516315;28;20219;-76
2022/06/07 22:33:05;;;;;;;2.83;0.80;;;20.00;38.20;;;;;;10508119;28;20231;-76
2022/06/07 22:38:08;;;;;;;1.00;0.80;;;19.90;38.40;;;;;;10525558;28;20224;-76
2022/06/07 22:43:12;;;;;;;0.60;0.60;;;19.90;38.30;;;;;;10518291;28;20675;-76
2022/06/07 22:48:16;;;;;;;1.80;0.80;;;19.70;38.40;;;;;;10516319;28;20226;-76
2022/06/07 22:53:26;;;;;;;1.63;1.07;;;19.60;38.80;;;;;;10510121;28;20224;-76
2022/06/07 22:58:34;;;;;;;0.60;0.60;;;19.60;39.40;;;;;;10518220;28;20242;-76
2022/06/07 23:03:41;;;;;;;1.07;0.73;;;19.50;39.20;;;;;;10513838;28;20588;-76
2022/06/07 23:08:49;;;;;;;2.70;0.80;;;19.50;39.60;;;;;;10518963;28;20235;-76
2022/06/07 23:19:14;;;;;;;0.80;0.80;;;19.60;39.40;;;;;;10511365;28;20676;-76
2022/06/07 23:24:18;;;;;;;1.70;0.70;;;19.60;39.50;;;;;;10504305;28;20236;-76
2022/06/07 23:29:21;;;;;;;0.87;0.70;;;19.70;39.30;;;;;;10512842;28;20223;-76
2022/06/07 23:34:26;;;;;;;1.20;0.73;;;19.70;39.30;;;;;;10524050;28;20232;-76
2022/06/07 23:39:30;;;;;;;0.60;0.60;;;19.70;39.10;;;;;;10511748;28;20224;-76
2022/06/07 23:44:33;;;;;;;0.80;0.80;;;19.70;39.00;;;;;;10518843;28;20236;-76
2022/06/07 23:49:41;;;;;;;0.97;0.73;;;19.70;39.00;;;;;;10516263;28;20230;-76
2022/06/07 23:54:46;;;;;;;0.70;0.70;;;19.60;39.60;;;;;;10505974;28;20236;-76
2022/06/07 23:59:53;;;;;;;0.80;0.70;;;19.50;39.20;;;;;;10514779;28;20231;-76
